Main page
Satellite images 10-day forecastsClimateMarine weather Cyclones Lightning AirportsFAQ Newsletter About
Weather : Europe Africa North America South America Asia Australia-Oceania Others
Languages Contact

London-Gatwick, England

Gatwick Airport

latitude: 51-09N, longitude: 000-11W, elevation: 62 m


METAR: EGKK 052250Z 22005KT CAVOK 14/12 Q1019
TAF: EGKK 051659Z 0518/0624 24010KT 9999 FEW025 PROB30 TEMPO 0602/0607 5000 BR BECMG 0617/0620 18008KT

Time: 00:13 (23:13 UTC)

Current weather observation

The report was made 23 minutes ago, at 22:50 UTC
Wind 5 kt from the Southwest
Temperature 14°C
Humidity 88%
Pressure 1019 hPa
Visibility 10 km or more
no clouds below 1500 m and no cumulonimbus

Change units

Forecast

The report was made 6 hours and 14 minutes ago, at 16:59 UTC
Forecast valid from 05 at 18 UTC to 06 at 24 UTC
Wind 10 kt from the West/Southwest
Visibility 10 km or more
Few clouds at a height of 2500 ft
Probability 30% :
Temporary
from 06 at 02 UTC to 06 at 07 UTC
Visibility: 5000 m
mist
Becoming
from 06 at 17 UTC to 06 at 20 UTC
Wind 8 kt from the South
The information on this site is subject to a disclaimer
Weather : Europe Africa North America South America Asia Australia-Oceania Others
Satellite images 10-day forecastsClimateMarine weather Cyclones Lightning AirportsFAQ Languages Contact Newsletter About